メインページ
METAR-TAF:

METAR-TAF

空港 :

女満別, 日本

女満別空港

緯度: 43-53N, 経度: 144-10E, 海抜: 33m

現時点の気象観測

当レポートは56分前の23:00(UTC)に作成
の風 7kt
気温 -18°C
湿度 77%
気圧 1016 hPa
視程10km以上
高度2000ftの雲はほとんどない
雲は散在している

METAR: RJCM 182300Z 17007KT 9999 FEW020 SCT/// M18/M21 Q1016

時間: 08:56 (23:56 UTC)

予報

当レポートは41分前の23:15(UTC)に作成
予報は19日の 00時(UTC)から 20日の 06時(UTC)まで有効
の風 6kt
視程10km以上
高度2000ftの雲はほとんどない
19日の 06時(UTC)から 19日の 09時(UTC)まで一時的に
視程: 3000m
弱いにわか雪
19日の 18時(UTC)から 19日の 21時(UTC)まで一時的に
視程: 3000m
弱いにわか雪

TAF: RJCM 182315Z 1900/2006 19006KT 9999 FEW020 TEMPO 1906/1909 3000 -SHSN TEMPO 1918/1921 3000 -SHSN

4,000以上の空港の気象観測と天気予報(METAR報とTAF報)

利用可能な観測所は地図上に黄色い丸と赤い丸で示す。

丸の上にカーソルを重ねると観測所名を参照できる。

次にクリックすると気象観測と天気予報を参照できる。

マップの切り替え:黒色「×」印の緑ボタンをクリックして拡大、「-」印の緑ボタンをクリックして縮小、緑色の三角印をクリックして隣りの地図に切り替え


METAR-TAF: